Time;durP1;ratioP1;P1;durP2;ratioP2;P2;SDS_P1;SDS_P2;PMS_P1;PMS_P2;Temp;Humidity;BMP_temperature;BMP_pressure;BME280_temperature;BME280_humidity;BME280_pressure;Samples;Min_cycle;Max_cycle;Signal;HPM_P1;HPM_P2
2022/01/16 00:00:42;;;;;;;;;;;4.10;96.40;;;;;;5018474;28;19910;-72
2022/01/16 00:05:53;;;;;;;;;;;4.10;96.20;;;;;;5007711;28;19916;-72
2022/01/16 00:08:19;;;;;;;;;;;4.10;96.30;;;;;;5005851;28;19910;-72
2022/01/16 00:10:45;;;;;;;;;;;4.10;96.30;;;;;;5018430;28;20403;-72
2022/01/16 00:13:10;;;;;;;;;;;4.10;96.20;;;;;;5018324;28;19913;-72
2022/01/16 00:15:36;;;;;;;;;;;4.10;96.20;;;;;;5018676;28;19909;-72
2022/01/16 00:20:30;;;;;;;;;;;4.20;96.20;;;;;;5018511;28;20283;-72
2022/01/16 00:22:57;;;;;;;;;;;4.20;96.20;;;;;;5018183;28;19967;-72
2022/01/16 00:25:23;;;;;;;;;;;4.10;96.20;;;;;;5018321;28;19971;-72
2022/01/16 00:27:48;;;;;;;;;;;4.10;96.30;;;;;;5017991;28;20008;-72
2022/01/16 00:30:14;;;;;;;;;;;4.20;96.30;;;;;;5018639;28;19996;-72
2022/01/16 00:32:40;;;;;;;;;;;4.10;96.30;;;;;;5023940;28;19913;-72
2022/01/16 00:35:06;;;;;;;;;;;4.10;96.30;;;;;;5017409;28;19937;-72
2022/01/16 00:37:31;;;;;;;;;;;4.10;96.40;;;;;;5018283;28;19953;-72
2022/01/16 00:39:57;;;;;;;;;;;4.20;96.40;;;;;;5018225;28;19921;-72
2022/01/16 00:42:23;;;;;;;;;;;4.10;96.30;;;;;;5017847;28;19917;-72
2022/01/16 00:44:48;;;;;;;;;;;4.10;96.30;;;;;;5018197;28;20435;-72
2022/01/16 00:47:14;;;;;;;;;;;4.10;96.30;;;;;;5023441;28;20498;-72
2022/01/16 00:49:41;;;;;;;;;;;4.20;96.40;;;;;;5018227;28;19909;-72
2022/01/16 00:52:07;;;;;;;;;;;4.20;96.40;;;;;;5017979;28;19916;-72
2022/01/16 00:54:33;;;;;;;;;;;4.20;96.40;;;;;;5018066;28;19916;-72
2022/01/16 00:56:58;;;;;;;;;;;4.20;96.40;;;;;;5016439;28;19910;-72
2022/01/16 00:59:24;;;;;;;;;;;4.20;96.40;;;;;;5017858;28;19913;-72
2022/01/16 01:01:50;;;;;;;;;;;4.20;96.40;;;;;;5017415;28;20262;-72
2022/01/16 01:04:16;;;;;;;;;;;4.20;96.50;;;;;;5017949;28;19914;-72
2022/01/16 01:06:41;;;;;;;;;;;4.20;96.50;;;;;;5018399;28;19913;-72
2022/01/16 01:09:07;;;;;;;;;;;4.20;96.60;;;;;;5009401;28;19909;-72
2022/01/16 01:11:33;;;;;;;;;;;4.20;96.60;;;;;;5021546;28;19937;-72
2022/01/16 01:16:47;;;;;;;;;;;4.20;96.60;;;;;;5021296;28;19955;-72
2022/01/16 01:19:13;;;;;;;;;;;4.20;96.60;;;;;;5021710;28;19968;-72
2022/01/16 01:21:39;;;;;;;;;;;4.20;96.60;;;;;;5021382;28;19916;-72
2022/01/16 01:24:04;;;;;;;;;;;4.20;96.60;;;;;;5021516;28;19916;-72
2022/01/16 01:26:32;;;;;;;;;;;4.30;96.70;;;;;;5021242;28;19922;-72
2022/01/16 01:28:57;;;;;;;;;;;4.20;96.60;;;;;;5021525;28;19977;-72
2022/01/16 01:31:25;;;;;;;;;;;4.30;96.50;;;;;;5021124;28;20403;-72
2022/01/16 01:33:51;;;;;;;;;;;4.30;96.50;;;;;;5027465;28;20357;-72
2022/01/16 01:36:16;;;;;;;;;;;4.30;96.50;;;;;;5021138;28;19934;-72
2022/01/16 01:38:42;;;;;;;;;;;4.30;96.60;;;;;;5021087;28;19914;-72
2022/01/16 01:41:08;;;;;;;;;;;4.30;96.50;;;;;;5021282;28;19910;-72
2022/01/16 01:51:31;;;;;;;;;;;4.30;96.70;;;;;;5021215;28;20021;-72
2022/01/16 01:53:57;;;;;;;;;;;4.30;96.70;;;;;;5020773;28;19920;-72
2022/01/16 01:56:24;;;;;;;;;;;4.30;96.80;;;;;;5021324;28;19964;-72
2022/01/16 01:58:54;;;;;;;;;;;4.30;96.70;;;;;;5020664;28;19913;-72
2022/01/16 02:01:20;;;;;;;;;;;4.30;96.70;;;;;;5020736;28;19909;-72
2022/01/16 02:03:48;;;;;;;;;;;4.30;96.80;;;;;;5020567;28;19920;-72
2022/01/16 02:06:17;;;;;;;;;;;4.40;96.80;;;;;;5020918;28;19916;-72
2022/01/16 02:08:44;;;;;;;;;;;4.40;96.80;;;;;;5007831;28;19910;-72
2022/01/16 02:11:11;;;;;;;;;;;4.40;96.80;;;;;;5019358;28;20342;-72
2022/01/16 02:13:47;;;;;;;;;;;4.40;96.70;;;;;;5020624;28;19960;-72
2022/01/16 02:35:39;;;;;;;;;;;4.40;96.70;;;;;;4959847;28;19917;-72
2022/01/16 02:38:06;;;;;;;;;;;4.50;96.70;;;;;;4988898;28;19925;-72
2022/01/16 02:40:32;;;;;;;;;;;4.40;96.70;;;;;;5019911;28;19924;-72
2022/01/16 02:42:58;;;;;;;;;;;4.50;96.70;;;;;;5020121;28;19909;-72
2022/01/16 02:45:31;;;;;;;;;;;4.50;96.80;;;;;;5019811;28;19913;-72
2022/01/16 02:47:58;;;;;;;;;;;4.50;96.90;;;;;;5027008;28;20423;-72
2022/01/16 02:50:24;;;;;;;;;;;4.50;96.90;;;;;;5019759;28;20419;-72
2022/01/16 02:52:50;;;;;;;;;;;4.50;97.00;;;;;;5019870;28;19909;-72
2022/01/16 02:55:19;;;;;;;;;;;4.50;97.00;;;;;;5019629;28;19945;-72
2022/01/16 02:57:45;;;;;;;;;;;4.50;97.00;;;;;;5020172;28;19960;-72
2022/01/16 03:00:11;;;;;;;;;;;4.50;97.00;;;;;;5019448;28;19913;-72
2022/01/16 03:02:36;;;;;;;;;;;4.50;97.00;;;;;;5018100;28;19955;-72
2022/01/16 03:05:02;;;;;;;;;;;4.50;96.90;;;;;;5019576;28;19910;-72
2022/01/16 03:07:28;;;;;;;;;;;4.50;96.80;;;;;;5013020;28;19949;-72
2022/01/16 03:12:36;;;;;;;;;;;4.60;96.70;;;;;;5019390;28;19913;-72
2022/01/16 03:15:01;;;;;;;;;;;4.60;96.70;;;;;;5019395;28;19992;-72
2022/01/16 03:17:50;;;;;;;;;;;4.60;96.70;;;;;;5019124;28;20325;-72
2022/01/16 03:23:00;;;;;;;;;;;4.60;96.70;;;;;;5019111;28;19916;-72
2022/01/16 03:25:26;;;;;;;;;;;4.60;96.80;;;;;;5019016;28;20308;-72
2022/01/16 03:27:51;;;;;;;;;;;4.70;96.80;;;;;;5017645;28;19910;-72
2022/01/16 03:30:17;;;;;;;;;;;4.60;96.80;;;;;;5018315;28;19910;-72
2022/01/16 03:32:43;;;;;;;;;;;4.70;96.80;;;;;;5024639;28;19916;-72
2022/01/16 03:35:08;;;;;;;;;;;4.70;96.90;;;;;;5019271;28;19910;-72
2022/01/16 03:37:34;;;;;;;;;;;4.70;97.00;;;;;;5019107;28;19909;-72
2022/01/16 03:40:00;;;;;;;;;;;4.70;97.00;;;;;;5018825;28;19936;-72
2022/01/16 03:42:29;;;;;;;;;;;4.70;97.00;;;;;;5018749;28;19960;-72
2022/01/16 03:44:55;;;;;;;;;;;4.70;97.00;;;;;;5018841;28;20288;-72
2022/01/16 03:47:21;;;;;;;;;;;4.70;97.00;;;;;;5025590;28;19910;-72
2022/01/16 03:49:46;;;;;;;;;;;4.70;96.90;;;;;;5018908;28;20391;-72
2022/01/16 03:52:12;;;;;;;;;;;4.70;96.90;;;;;;5018569;28;19916;-72
2022/01/16 03:54:38;;;;;;;;;;;4.70;96.90;;;;;;5018606;28;19937;-72
2022/01/16 03:57:03;;;;;;;;;;;4.70;96.90;;;;;;5017174;28;19913;-72
2022/01/16 03:59:29;;;;;;;;;;;4.70;96.90;;;;;;5018860;28;19913;-72
2022/01/16 04:01:55;;;;;;;;;;;4.70;97.00;;;;;;5016936;28;20009;-72
2022/01/16 04:04:20;;;;;;;;;;;4.70;97.00;;;;;;5017287;28;20380;-72
2022/01/16 04:06:46;;;;;;;;;;;4.70;96.90;;;;;;5017550;28;20344;-72
2022/01/16 04:09:12;;;;;;;;;;;4.70;96.90;;;;;;5007209;28;19910;-72
2022/01/16 04:11:48;;;;;;;;;;;4.70;96.90;;;;;;5018426;28;19960;-72
2022/01/16 04:14:22;;;;;;;;;;;4.70;96.90;;;;;;5018475;28;19916;-72
2022/01/16 04:16:48;;;;;;;;;;;4.70;96.90;;;;;;5018228;28;19910;-72
2022/01/16 04:19:14;;;;;;;;;;;4.70;96.90;;;;;;5018627;28;19914;-72
2022/01/16 04:21:39;;;;;;;;;;;4.70;96.80;;;;;;5017134;28;19914;-72
2022/01/16 04:24:05;;;;;;;;;;;4.70;96.80;;;;;;5018465;28;19914;-72
2022/01/16 04:26:31;;;;;;;;;;;4.70;96.80;;;;;;5018072;28;19967;-72
2022/01/16 04:28:56;;;;;;;;;;;4.70;96.80;;;;;;5018154;28;19909;-72
2022/01/16 04:31:22;;;;;;;;;;;4.70;96.80;;;;;;5017811;28;19909;-72
2022/01/16 04:33:48;;;;;;;;;;;4.70;96.70;;;;;;5025048;28;19909;-72
2022/01/16 04:36:14;;;;;;;;;;;4.70;96.70;;;;;;5018068;28;19953;-72
2022/01/16 04:38:45;;;;;;;;;;;4.70;96.70;;;;;;5017995;28;19910;-72
2022/01/16 04:43:59;;;;;;;;;;;4.70;96.70;;;;;;5017868;28;19916;-72
2022/01/16 04:46:26;;;;;;;;;;;4.70;96.60;;;;;;5020692;28;19910;-72
2022/01/16 04:48:52;;;;;;;;;;;4.70;96.60;;;;;;5023310;28;20364;-72
2022/01/16 04:51:19;;;;;;;;;;;4.70;96.70;;;;;;5018061;28;20411;-72
2022/01/16 04:53:44;;;;;;;;;;;4.70;96.70;;;;;;5017915;28;19914;-72
2022/01/16 04:56:10;;;;;;;;;;;4.70;96.70;;;;;;5018014;28;19963;-72
2022/01/16 04:58:37;;;;;;;;;;;4.70;96.70;;;;;;5017923;28;20007;-72
2022/01/16 05:01:03;;;;;;;;;;;4.70;96.60;;;;;;5018156;28;19910;-72
2022/01/16 05:03:29;;;;;;;;;;;4.70;96.60;;;;;;5017549;28;19918;-72
2022/01/16 05:05:55;;;;;;;;;;;4.70;96.60;;;;;;5018141;28;20332;-72
2022/01/16 05:08:21;;;;;;;;;;;4.70;96.70;;;;;;5005055;28;19914;-72
2022/01/16 05:10:47;;;;;;;;;;;4.70;96.70;;;;;;5018037;28;19910;-72
2022/01/16 05:18:35;;;;;;;;;;;4.70;96.70;;;;;;5017505;28;19916;-71
2022/01/16 05:21:02;;;;;;;;;;;4.70;96.70;;;;;;5017792;28;20004;-72
2022/01/16 05:23:29;;;;;;;;;;;4.70;96.70;;;;;;5017541;28;20380;-72
2022/01/16 05:25:54;;;;;;;;;;;4.70;96.80;;;;;;5017506;28;20016;-72
2022/01/16 05:28:20;;;;;;;;;;;4.70;96.70;;;;;;5017413;28;19998;-72
2022/01/16 05:30:46;;;;;;;;;;;4.70;96.70;;;;;;5017760;28;19913;-72
2022/01/16 05:33:12;;;;;;;;;;;4.70;96.70;;;;;;5024083;28;20257;-72
2022/01/16 05:35:37;;;;;;;;;;;4.70;96.70;;;;;;5016316;28;20287;-72
2022/01/16 05:38:03;;;;;;;;;;;4.70;96.70;;;;;;5017454;28;19969;-72
2022/01/16 05:40:29;;;;;;;;;;;4.80;96.60;;;;;;5017537;28;20443;-72
2022/01/16 05:42:55;;;;;;;;;;;4.80;96.60;;;;;;5030377;28;19909;-72
2022/01/16 05:45:21;;;;;;;;;;;4.80;96.60;;;;;;5017560;28;19916;-72
2022/01/16 05:47:47;;;;;;;;;;;4.80;96.70;;;;;;5025055;28;19909;-72
2022/01/16 05:50:13;;;;;;;;;;;4.80;96.60;;;;;;5017569;28;19909;-71
2022/01/16 05:52:39;;;;;;;;;;;4.80;96.60;;;;;;5018459;28;19921;-72
2022/01/16 05:55:05;;;;;;;;;;;4.80;96.70;;;;;;5020843;28;19939;-72
2022/01/16 05:57:31;;;;;;;;;;;4.80;96.70;;;;;;5021290;28;19910;-72
2022/01/16 05:59:58;;;;;;;;;;;4.80;96.70;;;;;;5020906;28;19914;-72
2022/01/16 06:02:25;;;;;;;;;;;4.80;96.80;;;;;;5020747;28;19913;-72
2022/01/16 06:04:50;;;;;;;;;;;4.80;96.80;;;;;;5020841;28;19909;-72
2022/01/16 06:07:16;;;;;;;;;;;4.80;96.80;;;;;;5015702;28;19913;-71
2022/01/16 06:09:42;;;;;;;;;;;4.80;96.80;;;;;;5011690;28;19917;-72
2022/01/16 06:12:08;;;;;;;;;;;4.80;96.80;;;;;;5020457;28;20421;-72
2022/01/16 06:14:33;;;;;;;;;;;4.80;96.90;;;;;;5020725;28;19906;-72
2022/01/16 06:16:59;;;;;;;;;;;4.80;96.80;;;;;;5020038;28;19916;-72
2022/01/16 06:19:25;;;;;;;;;;;4.80;96.80;;;;;;5020476;28;19913;-72
2022/01/16 06:21:50;;;;;;;;;;;4.80;96.80;;;;;;5020250;28;19916;-72
2022/01/16 06:24:16;;;;;;;;;;;4.80;96.70;;;;;;5020456;28;19914;-72
2022/01/16 06:26:42;;;;;;;;;;;4.80;96.70;;;;;;5020204;28;19952;-72
2022/01/16 06:29:07;;;;;;;;;;;4.80;96.80;;;;;;5020147;28;19917;-72
2022/01/16 06:31:33;;;;;;;;;;;4.80;96.80;;;;;;5019922;28;19909;-72
2022/01/16 06:34:00;;;;;;;;;;;4.80;96.80;;;;;;5026198;28;19910;-71
2022/01/16 06:36:26;;;;;;;;;;;4.80;96.90;;;;;;5020042;28;20300;-72
2022/01/16 06:38:53;;;;;;;;;;;4.80;96.90;;;;;;5019900;28;19920;-72
2022/01/16 06:41:19;;;;;;;;;;;4.80;96.90;;;;;;5020378;28;19948;-72
2022/01/16 06:43:44;;;;;;;;;;;4.80;97.00;;;;;;5019825;28;19910;-72
2022/01/16 06:46:10;;;;;;;;;;;4.80;97.00;;;;;;5020846;28;20718;-72
2022/01/16 06:48:36;;;;;;;;;;;4.80;97.00;;;;;;5026001;28;19916;-72
2022/01/16 06:51:02;;;;;;;;;;;4.80;97.00;;;;;;5019838;28;20008;-72
2022/01/16 06:53:28;;;;;;;;;;;4.80;97.10;;;;;;5019926;28;19949;-72
2022/01/16 06:55:53;;;;;;;;;;;4.80;97.00;;;;;;5019685;28;19922;-72
2022/01/16 06:58:19;;;;;;;;;;;4.80;96.90;;;;;;5019805;28;19910;-72
2022/01/16 07:00:45;;;;;;;;;;;4.70;96.90;;;;;;5019689;28;20004;-72
2022/01/16 07:03:12;;;;;;;;;;;4.80;97.00;;;;;;5019473;28;20382;-72
2022/01/16 07:05:37;;;;;;;;;;;4.80;96.90;;;;;;5020048;28;19910;-72
2022/01/16 07:08:03;;;;;;;;;;;4.80;96.90;;;;;;5008372;28;19997;-72
2022/01/16 07:10:29;;;;;;;;;;;4.70;96.90;;;;;;5017923;28;19910;-72
2022/01/16 07:12:54;;;;;;;;;;;4.70;96.90;;;;;;5019506;28;19960;-72
2022/01/16 07:15:20;;;;;;;;;;;4.70;96.90;;;;;;5019347;28;20431;-72
2022/01/16 07:17:45;;;;;;;;;;;4.70;96.80;;;;;;5019201;28;19948;-72
2022/01/16 07:20:12;;;;;;;;;;;4.70;96.80;;;;;;5019198;28;19951;-71
2022/01/16 07:22:37;;;;;;;;;;;4.80;96.90;;;;;;5019406;28;19910;-72
2022/01/16 07:25:03;;;;;;;;;;;4.80;96.90;;;;;;5018780;28;19910;-72
2022/01/16 07:27:28;;;;;;;;;;;4.80;96.90;;;;;;5019505;28;19913;-72
2022/01/16 07:29:54;;;;;;;;;;;4.70;96.90;;;;;;5018928;28;19909;-72
2022/01/16 07:32:20;;;;;;;;;;;4.70;96.90;;;;;;5024371;28;19913;-72
2022/01/16 07:34:45;;;;;;;;;;;4.70;97.00;;;;;;5019512;28;19960;-72
2022/01/16 07:37:11;;;;;;;;;;;4.70;97.00;;;;;;5019099;28;19910;-72
2022/01/16 07:39:37;;;;;;;;;;;4.70;97.10;;;;;;5018830;28;20380;-72
2022/01/16 07:42:03;;;;;;;;;;;4.70;97.10;;;;;;5018871;28;19937;-72
2022/01/16 07:44:29;;;;;;;;;;;4.70;97.20;;;;;;5018861;28;19917;-72
2022/01/16 07:46:55;;;;;;;;;;;4.70;97.10;;;;;;5025573;28;19910;-72
2022/01/16 07:49:20;;;;;;;;;;;4.70;97.10;;;;;;5019461;28;19920;-72
2022/01/16 07:51:46;;;;;;;;;;;4.70;97.10;;;;;;5018909;28;19913;-72
2022/01/16 07:54:11;;;;;;;;;;;4.70;97.20;;;;;;5018610;28;19916;-72
2022/01/16 07:56:37;;;;;;;;;;;4.70;97.20;;;;;;5018862;28;19909;-72
2022/01/16 07:59:03;;;;;;;;;;;4.70;97.30;;;;;;5018573;28;19921;-72
2022/01/16 08:01:28;;;;;;;;;;;4.70;97.30;;;;;;5018550;28;19909;-72
2022/01/16 08:03:54;;;;;;;;;;;4.70;97.40;;;;;;5017246;28;19917;-72
2022/01/16 08:06:19;;;;;;;;;;;4.70;97.40;;;;;;5018749;28;19959;-72
2022/01/16 08:08:45;;;;;;;;;;;4.70;97.40;;;;;;5005715;28;19910;-72
2022/01/16 08:11:11;;;;;;;;;;;4.70;97.40;;;;;;5018483;28;20008;-72
2022/01/16 08:13:37;;;;;;;;;;;4.70;97.40;;;;;;5018243;28;19964;-72
2022/01/16 08:16:05;;;;;;;;;;;4.70;97.40;;;;;;5017964;28;19960;-72
2022/01/16 08:18:31;;;;;;;;;;;4.70;97.50;;;;;;5018106;28;19916;-72
2022/01/16 08:20:57;;;;;;;;;;;4.70;97.50;;;;;;5018497;28;19964;-72
2022/01/16 08:23:24;;;;;;;;;;;4.70;97.50;;;;;;5018117;28;19914;-72
2022/01/16 08:25:50;;;;;;;;;;;4.70;97.50;;;;;;5017938;28;20274;-72
2022/01/16 08:28:16;;;;;;;;;;;4.70;97.50;;;;;;5016619;28;20392;-72
2022/01/16 08:30:42;;;;;;;;;;;4.70;97.50;;;;;;5018344;28;19960;-72
2022/01/16 08:33:07;;;;;;;;;;;4.80;97.50;;;;;;5023889;28;19914;-72
2022/01/16 08:35:33;;;;;;;;;;;4.80;97.50;;;;;;5018370;28;19971;-72
2022/01/16 08:37:58;;;;;;;;;;;4.80;97.40;;;;;;5017972;28;19916;-72
2022/01/16 08:40:24;;;;;;;;;;;4.80;97.40;;;;;;5017050;28;19920;-72
2022/01/16 08:42:50;;;;;;;;;;;4.90;97.40;;;;;;5017859;28;19913;-72
2022/01/16 08:45:15;;;;;;;;;;;4.90;97.50;;;;;;5018060;28;19920;-72
2022/01/16 08:47:41;;;;;;;;;;;4.90;97.40;;;;;;5025416;28;19909;-72
2022/01/16 08:50:08;;;;;;;;;;;5.00;97.50;;;;;;5018228;28;19909;-72
2022/01/16 08:52:34;;;;;;;;;;;5.00;97.50;;;;;;5017720;28;19910;-72
2022/01/16 08:55:01;;;;;;;;;;;5.00;97.50;;;;;;5017823;28;19916;-72
2022/01/16 08:57:27;;;;;;;;;;;5.10;97.50;;;;;;5017760;28;19909;-72
2022/01/16 08:59:53;;;;;;;;;;;5.10;97.40;;;;;;5017811;28;19913;-72
2022/01/16 09:02:18;;;;;;;;;;;5.10;97.50;;;;;;5017547;28;19916;-72
2022/01/16 09:04:44;;;;;;;;;;;5.10;97.50;;;;;;5017879;28;19960;-72
2022/01/16 09:07:10;;;;;;;;;;;5.10;97.50;;;;;;5012409;28;19921;-72
2022/01/16 09:09:36;;;;;;;;;;;5.10;97.40;;;;;;5009469;28;19993;-72
2022/01/16 09:12:02;;;;;;;;;;;5.10;97.40;;;;;;5016316;28;20324;-72
2022/01/16 09:14:27;;;;;;;;;;;5.10;97.40;;;;;;5017856;28;19913;-72
2022/01/16 09:16:53;;;;;;;;;;;5.20;97.40;;;;;;5017395;28;20265;-72
2022/01/16 09:19:19;;;;;;;;;;;5.20;97.50;;;;;;5017721;28;20269;-72
2022/01/16 09:21:44;;;;;;;;;;;5.30;97.50;;;;;;5017647;28;20299;-72
2022/01/16 09:24:10;;;;;;;;;;;5.30;97.60;;;;;;5017593;28;19909;-72
2022/01/16 09:26:36;;;;;;;;;;;5.40;97.60;;;;;;5017361;28;20008;-72
2022/01/16 09:29:03;;;;;;;;;;;5.40;97.60;;;;;;5020651;28;19909;-72
2022/01/16 09:31:28;;;;;;;;;;;5.50;97.60;;;;;;5020995;28;19909;-72
2022/01/16 09:33:54;;;;;;;;;;;5.60;97.60;;;;;;5025955;28;19909;-72
2022/01/16 09:36:20;;;;;;;;;;;5.60;97.60;;;;;;5021404;28;19909;-72
2022/01/16 09:38:46;;;;;;;;;;;5.60;97.50;;;;;;5021049;28;20392;-72
2022/01/16 09:41:12;;;;;;;;;;;5.60;97.50;;;;;;5021084;28;19910;-72
2022/01/16 09:43:38;;;;;;;;;;;5.70;97.40;;;;;;5021092;28;20380;-72
2022/01/16 09:46:04;;;;;;;;;;;5.70;97.50;;;;;;5020900;28;19968;-72
2022/01/16 09:48:29;;;;;;;;;;;5.80;97.50;;;;;;5028065;28;19915;-72
2022/01/16 09:50:55;;;;;;;;;;;5.90;97.60;;;;;;5021083;28;19976;-72
2022/01/16 09:53:22;;;;;;;;;;;5.90;97.50;;;;;;5021156;28;19960;-72
2022/01/16 09:55:47;;;;;;;;;;;6.00;97.50;;;;;;5021071;28;19955;-72
2022/01/16 09:58:13;;;;;;;;;;;6.00;97.40;;;;;;5019601;28;20009;-72
2022/01/16 10:00:39;;;;;;;;;;;6.00;97.40;;;;;;5021034;28;20019;-72
2022/01/16 10:03:05;;;;;;;;;;;6.00;97.30;;;;;;5020499;28;19910;-72
2022/01/16 10:05:31;;;;;;;;;;;6.10;97.30;;;;;;5020781;28;19909;-72
2022/01/16 10:07:58;;;;;;;;;;;6.10;97.30;;;;;;5010423;28;19917;-72
2022/01/16 10:10:25;;;;;;;;;;;6.10;97.30;;;;;;5018785;28;19921;-72
2022/01/16 10:12:54;;;;;;;;;;;6.10;97.30;;;;;;5020726;28;19909;-72
2022/01/16 10:15:20;;;;;;;;;;;6.20;97.30;;;;;;5020499;28;20276;-72
2022/01/16 10:17:47;;;;;;;;;;;6.30;97.30;;;;;;5020406;28;19953;-72
2022/01/16 10:20:16;;;;;;;;;;;6.30;97.30;;;;;;5020212;28;20003;-72
2022/01/16 10:22:46;;;;;;;;;;;6.30;97.50;;;;;;5020515;28;19921;-72
2022/01/16 10:25:13;;;;;;;;;;;6.30;97.40;;;;;;5007218;28;19914;-72
2022/01/16 10:27:39;;;;;;;;;;;6.40;97.50;;;;;;5020280;28;20335;-72
2022/01/16 10:30:09;;;;;;;;;;;6.50;97.60;;;;;;5020394;28;19916;-72
2022/01/16 10:32:36;;;;;;;;;;;6.60;97.70;;;;;;5026630;28;20038;-72
2022/01/16 10:35:10;;;;;;;;;;;6.70;97.70;;;;;;5020310;28;19909;-72
2022/01/16 10:37:36;;;;;;;;;;;6.80;97.60;;;;;;5020168;28;19933;-72
2022/01/16 10:40:10;;;;;;;;;;;6.80;97.50;;;;;;5019779;28;19971;-72
2022/01/16 10:42:37;;;;;;;;;;;6.80;97.40;;;;;;5020069;28;19917;-72
2022/01/16 10:45:04;;;;;;;;;;;6.80;97.30;;;;;;5018761;28;19932;-72
2022/01/16 10:47:32;;;;;;;;;;;6.90;97.30;;;;;;5027184;28;19909;-72
2022/01/16 10:50:03;;;;;;;;;;;6.90;97.30;;;;;;5020199;28;19916;-72
2022/01/16 10:52:29;;;;;;;;;;;6.90;97.30;;;;;;5019686;28;19910;-72
2022/01/16 10:55:03;;;;;;;;;;;6.90;97.30;;;;;;5019758;28;19910;-72
2022/01/16 10:57:29;;;;;;;;;;;7.00;97.30;;;;;;5019724;28;19977;-72
2022/01/16 11:00:10;;;;;;;;;;;7.00;97.30;;;;;;5019790;28;19914;-72
2022/01/16 11:02:36;;;;;;;;;;;7.00;97.30;;;;;;5008470;28;20008;-72
2022/01/16 11:05:12;;;;;;;;;;;7.10;97.40;;;;;;5019597;28;19909;-72
2022/01/16 11:07:38;;;;;;;;;;;7.10;97.30;;;;;;5011926;28;19960;-72
2022/01/16 11:10:18;;;;;;;;;;;7.20;97.40;;;;;;5013741;28;19916;-72
2022/01/16 11:12:43;;;;;;;;;;;7.30;97.40;;;;;;5019575;28;19909;-73
2022/01/16 11:15:09;;;;;;;;;;;7.30;97.30;;;;;;5019351;28;19909;-72
2022/01/16 11:17:38;;;;;;;;;;;7.40;97.20;;;;;;5019220;28;20340;-73
2022/01/16 11:20:05;;;;;;;;;;;7.40;97.10;;;;;;5019175;28;20004;-72
2022/01/16 11:22:35;;;;;;;;;;;7.40;97.10;;;;;;5019372;28;19997;-73
2022/01/16 11:25:12;;;;;;;;;;;7.50;97.10;;;;;;5019056;28;20369;-73
2022/01/16 11:27:39;;;;;;;;;;;7.50;97.10;;;;;;5019144;28;20372;-72
2022/01/16 11:30:05;;;;;;;;;;;7.50;97.20;;;;;;5017954;28;20388;-72
2022/01/16 11:32:31;;;;;;;;;;;7.60;97.20;;;;;;5025048;28;19909;-72
2022/01/16 11:34:57;;;;;;;;;;;7.60;97.10;;;;;;5019259;28;19913;-72
2022/01/16 11:37:22;;;;;;;;;;;7.60;97.10;;;;;;5018928;28;19909;-72
2022/01/16 11:39:48;;;;;;;;;;;7.70;97.00;;;;;;5019216;28;19920;-73
2022/01/16 11:42:21;;;;;;;;;;;7.60;97.00;;;;;;5018827;28;19909;-72
2022/01/16 11:44:50;;;;;;;;;;;7.70;97.10;;;;;;5019142;28;19964;-73
2022/01/16 11:47:16;;;;;;;;;;;7.70;97.10;;;;;;5025945;28;19920;-73
2022/01/16 11:49:42;;;;;;;;;;;7.80;97.10;;;;;;5018574;28;20008;-72
2022/01/16 11:52:09;;;;;;;;;;;7.80;97.10;;;;;;5018442;28;19910;-73
2022/01/16 11:54:36;;;;;;;;;;;7.80;97.10;;;;;;5018849;28;20395;-73
2022/01/16 11:57:07;;;;;;;;;;;7.90;97.10;;;;;;5018743;28;19996;-72
2022/01/16 11:59:33;;;;;;;;;;;8.00;97.10;;;;;;5018815;28;20020;-73
2022/01/16 12:02:00;;;;;;;;;;;8.00;97.20;;;;;;5018225;28;19990;-72
2022/01/16 12:04:29;;;;;;;;;;;8.20;97.40;;;;;;5018725;28;19920;-72
2022/01/16 12:06:55;;;;;;;;;;;8.30;97.60;;;;;;5016505;28;19910;-72
2022/01/16 12:09:37;;;;;;;;;;;8.50;97.50;;;;;;5008392;28;19964;-72
2022/01/16 12:12:23;;;;;;;;;;;8.80;97.70;;;;;;5018294;28;20388;-73
2022/01/16 12:14:52;;;;;;;;;;;9.20;97.90;;;;;;5018147;28;19996;-73
2022/01/16 12:17:51;;;;;;;;;;;9.70;97.90;;;;;;5018280;28;19909;-73
2022/01/16 12:20:27;;;;;;;;;;;10.30;97.70;;;;;;5018393;28;20423;-73
2022/01/16 12:22:55;;;;;;;;;;;10.80;97.00;;;;;;5018163;28;19917;-73
2022/01/16 12:25:34;;;;;;;;;;;11.20;96.30;;;;;;5018326;28;19917;-73
2022/01/16 12:28:01;;;;;;;;;;;11.60;95.10;;;;;;5018045;28;19921;-73
2022/01/16 12:30:33;;;;;;;;;;;11.70;94.60;;;;;;5018483;28;19963;-73
2022/01/16 12:32:59;;;;;;;;;;;11.90;94.60;;;;;;5024643;28;19910;-73
2022/01/16 12:35:46;;;;;;;;;;;12.30;94.20;;;;;;5018222;28;20395;-74
2022/01/16 12:38:19;;;;;;;;;;;12.70;93.60;;;;;;5005679;28;19916;-73
2022/01/16 12:40:47;;;;;;;;;;;13.00;92.30;;;;;;5017960;28;19913;-73
2022/01/16 12:43:20;;;;;;;;;;;13.00;91.80;;;;;;5018088;28;19910;-74
2022/01/16 12:45:46;;;;;;;;;;;13.00;90.60;;;;;;5017742;28;20331;-73
2022/01/16 12:48:13;;;;;;;;;;;12.90;90.60;;;;;;5026000;28;19910;-73
2022/01/16 12:50:39;;;;;;;;;;;12.70;91.30;;;;;;5017938;28;19959;-73
2022/01/16 12:53:04;;;;;;;;;;;12.50;91.70;;;;;;5017989;28;19996;-73
2022/01/16 12:55:31;;;;;;;;;;;12.40;91.50;;;;;;5017818;28;19996;-73
2022/01/16 12:58:16;;;;;;;;;;;12.40;91.10;;;;;;5018094;28;19920;-73
2022/01/16 13:00:56;;;;;;;;;;;12.30;91.50;;;;;;5017579;28;20319;-73
2022/01/16 13:03:25;;;;;;;;;;;12.20;91.50;;;;;;5021670;28;19909;-73
2022/01/16 13:05:51;;;;;;;;;;;12.10;90.90;;;;;;5022325;28;19909;-74
2022/01/16 13:08:16;;;;;;;;;;;12.00;91.10;;;;;;5009063;28;19917;-73
2022/01/16 13:10:42;;;;;;;;;;;11.90;90.60;;;;;;5021758;28;19917;-73
2022/01/16 13:13:11;;;;;;;;;;;11.80;90.60;;;;;;5021618;28;19913;-73
2022/01/16 13:15:37;;;;;;;;;;;11.70;90.70;;;;;;5021819;28;20339;-73
2022/01/16 13:18:10;;;;;;;;;;;11.60;90.60;;;;;;5021355;28;19909;-73
2022/01/16 13:20:36;;;;;;;;;;;11.60;90.90;;;;;;5021904;28;20398;-73
2022/01/16 13:23:02;;;;;;;;;;;11.50;91.10;;;;;;5021462;28;20006;-73
2022/01/16 13:25:29;;;;;;;;;;;11.50;91.40;;;;;;5021441;28;20003;-73
2022/01/16 13:27:56;;;;;;;;;;;11.50;91.60;;;;;;5021220;28;20393;-73
2022/01/16 13:30:27;;;;;;;;;;;11.50;91.50;;;;;;5021436;28;19910;-73
2022/01/16 13:33:01;;;;;;;;;;;11.50;91.90;;;;;;5027369;28;19969;-73
2022/01/16 13:35:28;;;;;;;;;;;11.50;91.80;;;;;;5021516;28;19944;-73
2022/01/16 13:38:03;;;;;;;;;;;11.50;91.30;;;;;;5021224;28;19917;-73
2022/01/16 13:40:30;;;;;;;;;;;11.60;91.20;;;;;;5021336;28;19913;-73
2022/01/16 13:45:30;;;;;;;;;;;11.80;91.80;;;;;;5021062;28;19956;-73
2022/01/16 13:48:02;;;;;;;;;;;11.90;91.10;;;;;;5028358;28;19913;-73
2022/01/16 13:50:38;;;;;;;;;;;12.10;91.00;;;;;;5021005;28;19909;-73
2022/01/16 13:53:14;;;;;;;;;;;12.20;90.40;;;;;;5021112;28;19910;-73
2022/01/16 13:55:59;;;;;;;;;;;12.40;90.80;;;;;;5020785;28;19909;-73
2022/01/16 13:58:27;;;;;;;;;;;12.50;90.70;;;;;;5020787;28;20237;-73
2022/01/16 14:00:54;;;;;;;;;;;12.70;90.70;;;;;;5020617;28;19920;-73
2022/01/16 14:03:21;;;;;;;;;;;12.70;90.80;;;;;;5020763;28;19964;-73
2022/01/16 14:05:53;;;;;;;;;;;12.70;90.30;;;;;;5020879;28;19913;-73
2022/01/16 14:08:29;;;;;;;;;;;12.70;88.80;;;;;;5008278;28;20407;-73
2022/01/16 14:11:06;;;;;;;;;;;12.60;88.90;;;;;;5019339;28;19909;-73
2022/01/16 14:13:32;;;;;;;;;;;12.50;89.00;;;;;;5019759;28;19910;-73
2022/01/16 14:16:05;;;;;;;;;;;12.40;89.90;;;;;;5020303;28;19963;-73
2022/01/16 14:23:59;;;;;;;;;;;12.10;90.30;;;;;;5020613;28;19956;-73
2022/01/16 14:26:25;;;;;;;;;;;11.90;90.50;;;;;;5020204;28;20308;-73
2022/01/16 14:28:51;;;;;;;;;;;11.80;90.50;;;;;;5020342;28;19960;-73
2022/01/16 14:31:17;;;;;;;;;;;11.70;90.90;;;;;;5020004;28;20308;-73
2022/01/16 14:33:42;;;;;;;;;;;11.70;91.10;;;;;;5026340;28;19910;-73
2022/01/16 14:36:08;;;;;;;;;;;11.70;91.40;;;;;;5019883;28;19953;-73
2022/01/16 14:38:38;;;;;;;;;;;11.70;91.40;;;;;;5020389;28;19909;-73
2022/01/16 14:41:03;;;;;;;;;;;11.60;91.60;;;;;;5019916;28;19964;-73
2022/01/16 14:43:40;;;;;;;;;;;11.60;91.60;;;;;;5020107;28;19921;-73
2022/01/16 14:46:06;;;;;;;;;;;11.60;91.60;;;;;;5020041;28;19909;-73
2022/01/16 14:48:31;;;;;;;;;;;11.60;92.00;;;;;;5027674;28;19959;-73
2022/01/16 14:50:57;;;;;;;;;;;11.60;92.00;;;;;;5019925;28;19909;-73
2022/01/16 14:53:23;;;;;;;;;;;11.60;92.10;;;;;;5020083;28;19914;-73
2022/01/16 14:55:48;;;;;;;;;;;11.60;92.20;;;;;;5019656;28;19917;-73
2022/01/16 14:58:14;;;;;;;;;;;11.60;92.10;;;;;;5020063;28;19909;-73
2022/01/16 15:00:39;;;;;;;;;;;11.60;92.00;;;;;;5019466;28;20012;-73
2022/01/16 15:03:05;;;;;;;;;;;11.50;92.20;;;;;;5019672;28;20000;-73
2022/01/16 15:05:31;;;;;;;;;;;11.50;92.30;;;;;;5019635;28;19910;-73
2022/01/16 15:07:56;;;;;;;;;;;11.50;92.40;;;;;;5019777;28;19919;-73
2022/01/16 15:10:22;;;;;;;;;;;11.50;92.50;;;;;;5019599;28;19916;-73
2022/01/16 15:12:48;;;;;;;;;;;11.50;92.70;;;;;;5019817;28;19909;-73
2022/01/16 15:15:13;;;;;;;;;;;11.40;92.80;;;;;;5019496;28;19917;-73
2022/01/16 15:17:43;;;;;;;;;;;11.40;92.70;;;;;;5019372;28;20296;-73
2022/01/16 15:20:15;;;;;;;;;;;11.40;92.70;;;;;;5019604;28;19913;-73
2022/01/16 15:22:43;;;;;;;;;;;11.30;92.80;;;;;;5019279;28;19910;-73
2022/01/16 15:25:09;;;;;;;;;;;11.30;93.00;;;;;;5019173;28;19917;-73